createdAt,value
2023-05-20T00:00:47.633Z,48.82
2023-05-20T00:01:47.627Z,42.39
2023-05-20T00:02:47.695Z,49.40
2023-05-20T00:03:47.805Z,45.82
2023-05-20T00:04:47.658Z,51.08
2023-05-20T00:05:47.607Z,41.78
2023-05-20T00:06:47.571Z,49.46
2023-05-20T00:07:47.561Z,45.21
2023-05-20T00:08:47.549Z,50.55
2023-05-20T00:09:47.546Z,46.85
2023-05-20T00:10:47.540Z,44.84
2023-05-20T00:11:47.517Z,40.02
2023-05-20T00:12:47.507Z,47.84
2023-05-20T00:13:47.496Z,40.03
2023-05-20T00:14:47.499Z,40.23
2023-05-20T00:15:47.490Z,48.08
2023-05-20T00:16:47.568Z,42.84
2023-05-20T00:17:47.476Z,41.18
2023-05-20T00:18:47.494Z,47.17
2023-05-20T00:19:47.444Z,47.55
2023-05-20T00:20:47.428Z,45.40
2023-05-20T00:21:47.414Z,51.63
2023-05-20T00:22:47.415Z,44.80
2023-05-20T00:23:47.396Z,45.81
2023-05-20T00:24:47.395Z,48.24
2023-05-20T00:25:47.399Z,42.62
2023-05-20T00:26:47.366Z,42.88
2023-05-20T00:27:47.366Z,46.39
2023-05-20T00:28:47.359Z,50.97
2023-05-20T00:29:47.354Z,40.32
2023-05-20T00:30:47.331Z,50.57
2023-05-20T00:31:47.353Z,50.21
2023-05-20T00:32:47.333Z,42.61
2023-05-20T00:33:47.305Z,46.63
2023-05-20T00:34:47.303Z,48.77
2023-05-20T00:35:47.280Z,43.57
2023-05-20T00:36:47.284Z,51.36
2023-05-20T00:37:47.254Z,46.46
2023-05-20T00:38:47.255Z,44.92
2023-05-20T00:39:48.240Z,44.02
2023-05-20T00:40:47.236Z,47.79
2023-05-20T00:41:47.224Z,50.01
2023-05-20T00:42:47.225Z,50.44
2023-05-20T00:43:47.214Z,43.30
2023-05-20T00:44:47.193Z,42.18
2023-05-20T00:45:47.213Z,42.60
2023-05-20T00:46:47.175Z,44.46
2023-05-20T00:47:47.220Z,47.18
2023-05-20T00:48:47.169Z,45.09
2023-05-20T00:49:49.554Z,45.56
2023-05-20T00:50:47.128Z,41.82
2023-05-20T00:51:47.130Z,46.93
2023-05-20T00:52:47.126Z,49.51
2023-05-20T00:53:47.115Z,44.06
2023-05-20T00:54:47.095Z,48.59
2023-05-20T00:55:47.079Z,44.74
2023-05-20T00:56:47.077Z,43.12
2023-05-20T00:57:47.073Z,39.89
2023-05-20T00:58:47.051Z,45.42
2023-05-20T00:59:47.048Z,49.05
2023-05-20T01:00:47.036Z,47.54
2023-05-20T01:01:47.098Z,49.42
2023-05-20T01:02:47.115Z,44.72
2023-05-20T01:03:47.061Z,44.69
2023-05-20T01:04:46.995Z,42.53
2023-05-20T01:05:46.979Z,42.58
2023-05-20T01:06:46.983Z,40.17
2023-05-20T01:07:46.975Z,40.03
2023-05-20T01:08:46.968Z,44.14
2023-05-20T01:09:46.947Z,44.60
2023-05-20T01:10:46.932Z,46.22
2023-05-20T01:11:46.943Z,40.94
2023-05-20T01:12:46.915Z,46.21
2023-05-20T01:13:46.929Z,44.84
2023-05-20T01:14:46.924Z,43.72
2023-05-20T01:15:48.311Z,43.61
2023-05-20T01:16:46.896Z,42.01
2023-05-20T01:17:46.898Z,45.63
2023-05-20T01:18:46.906Z,44.42
2023-05-20T01:19:46.855Z,40.38
2023-05-20T01:20:46.836Z,44.74
2023-05-20T01:21:46.847Z,46.17
2023-05-20T01:22:46.850Z,40.55
2023-05-20T01:23:46.799Z,43.62
2023-05-20T01:24:46.803Z,45.20
2023-05-20T01:25:46.793Z,39.35
2023-05-20T01:26:46.818Z,43.63
2023-05-20T01:27:46.754Z,47.18
2023-05-20T01:28:47.760Z,43.23
2023-05-20T01:29:46.739Z,47.47
2023-05-20T01:30:46.742Z,44.54
2023-05-20T01:31:46.777Z,43.48
2023-05-20T01:32:46.783Z,40.89
2023-05-20T01:33:46.697Z,44.19
2023-05-20T01:34:46.694Z,44.42
2023-05-20T01:35:46.701Z,45.72
2023-05-20T01:36:46.676Z,45.58
2023-05-20T01:37:46.667Z,42.06
2023-05-20T01:38:46.658Z,40.50
2023-05-20T01:39:46.702Z,44.48
2023-05-20T01:40:46.648Z,46.42
2023-05-20T01:41:46.654Z,46.19
2023-05-20T01:42:46.673Z,40.80
2023-05-20T01:43:46.627Z,43.74
2023-05-20T01:44:46.616Z,41.51
2023-05-20T01:45:46.635Z,48.59
2023-05-20T01:46:46.627Z,46.18
2023-05-20T01:47:46.634Z,45.36
2023-05-20T01:48:46.572Z,42.76
2023-05-20T01:49:46.553Z,42.29
2023-05-20T01:50:46.552Z,42.86
2023-05-20T01:51:46.534Z,38.82
2023-05-20T01:52:46.522Z,43.42
2023-05-20T01:53:46.522Z,39.72
2023-05-20T01:54:46.525Z,39.19
2023-05-20T01:55:46.493Z,40.83
2023-05-20T01:56:46.481Z,39.21
2023-05-20T01:57:46.474Z,38.79
2023-05-20T01:58:46.480Z,38.75
2023-05-20T01:59:46.462Z,39.27
2023-05-20T02:00:46.483Z,41.75
2023-05-20T02:01:46.473Z,40.21
2023-05-20T02:02:46.471Z,42.78
2023-05-20T02:03:46.437Z,45.70
2023-05-20T02:04:46.403Z,46.67
2023-05-20T02:05:46.453Z,38.83
2023-05-20T02:06:46.384Z,39.24
2023-05-20T02:07:46.378Z,44.91
2023-05-20T02:08:46.374Z,43.16
2023-05-20T02:09:46.374Z,40.78
2023-05-20T02:10:46.349Z,39.22
2023-05-20T02:11:46.350Z,41.19
2023-05-20T02:12:46.350Z,42.23
2023-05-20T02:13:46.332Z,42.88
2023-05-20T02:14:46.316Z,45.40
2023-05-20T02:15:46.295Z,43.45
2023-05-20T02:16:46.344Z,38.25
2023-05-20T02:17:46.326Z,39.04
2023-05-20T02:18:46.282Z,44.40
2023-05-20T02:19:46.276Z,42.50
2023-05-20T02:20:46.253Z,39.63
2023-05-20T02:21:46.251Z,38.15
2023-05-20T02:22:46.242Z,38.33
2023-05-20T02:23:46.221Z,42.40
2023-05-20T02:24:46.211Z,43.62
2023-05-20T02:25:46.205Z,38.70
2023-05-20T02:26:46.219Z,41.58
2023-05-20T02:27:46.181Z,41.23
2023-05-20T02:28:46.173Z,38.63
2023-05-20T02:29:46.165Z,42.07
2023-05-20T02:30:46.149Z,38.95
2023-05-20T02:31:47.159Z,40.44
2023-05-20T02:32:46.174Z,41.63
2023-05-20T02:33:46.165Z,43.92
2023-05-20T02:34:46.115Z,48.02
2023-05-20T02:35:46.109Z,47.98
2023-05-20T02:36:46.110Z,44.77
2023-05-20T02:37:46.092Z,44.61
2023-05-20T02:38:46.103Z,44.34
2023-05-20T02:39:46.067Z,44.26
2023-05-20T02:40:46.074Z,48.19
2023-05-20T02:41:46.061Z,49.66
2023-05-20T02:42:46.040Z,50.14
2023-05-20T02:43:46.043Z,47.26
2023-05-20T02:44:46.021Z,49.09
2023-05-20T02:45:46.072Z,47.92
2023-05-20T02:46:46.002Z,45.83
2023-05-20T02:47:46.020Z,48.23
2023-05-20T02:48:45.985Z,49.55
2023-05-20T02:49:45.967Z,52.27
2023-05-20T02:50:45.971Z,47.41
2023-05-20T02:51:45.956Z,46.55
2023-05-20T02:52:45.944Z,43.48
2023-05-20T02:53:45.934Z,50.24
2023-05-20T02:54:45.933Z,52.14
2023-05-20T02:55:45.924Z,52.05
2023-05-20T02:56:45.898Z,53.58
2023-05-20T02:57:45.893Z,45.18
2023-05-20T02:58:45.883Z,43.42
2023-05-20T02:59:45.886Z,49.39
2023-05-20T03:00:45.862Z,50.51
2023-05-20T03:01:45.885Z,50.85
2023-05-20T03:02:45.935Z,47.76
2023-05-20T03:03:45.841Z,44.74
2023-05-20T03:04:45.970Z,47.02
2023-05-20T03:05:45.828Z,45.11
2023-05-20T03:06:45.803Z,44.85
2023-05-20T03:07:45.794Z,43.58
2023-05-20T03:08:45.784Z,43.13
2023-05-20T03:09:45.786Z,47.82
2023-05-20T03:10:45.802Z,46.21
2023-05-20T03:11:45.756Z,46.20
2023-05-20T03:12:45.765Z,44.27
2023-05-20T03:13:45.744Z,42.70
2023-05-20T03:14:45.732Z,42.55
2023-05-20T03:15:45.783Z,41.99
2023-05-20T03:16:45.700Z,42.02
2023-05-20T03:17:45.695Z,42.79
2023-05-20T03:18:45.703Z,46.92
2023-05-20T03:19:45.676Z,45.94
2023-05-20T03:20:45.690Z,47.38
2023-05-20T03:21:45.646Z,47.39
2023-05-20T03:22:45.670Z,51.05
2023-05-20T03:23:45.645Z,47.68
2023-05-20T03:24:45.628Z,47.08
2023-05-20T03:25:45.613Z,48.71
2023-05-20T03:26:45.606Z,48.56
2023-05-20T03:27:45.600Z,48.86
2023-05-20T03:28:45.607Z,47.30
2023-05-20T03:29:45.576Z,48.11
2023-05-20T03:30:45.558Z,45.95
2023-05-20T03:31:45.733Z,45.30
2023-05-20T03:32:45.583Z,41.64
2023-05-20T03:33:45.540Z,50.17
2023-05-20T03:34:45.529Z,47.23
2023-05-20T03:35:45.518Z,47.83
2023-05-20T03:36:45.507Z,48.86
2023-05-20T03:37:45.502Z,48.86
2023-05-20T03:38:45.484Z,47.05
2023-05-20T03:39:45.464Z,44.39
2023-05-20T03:40:46.470Z,42.47
2023-05-20T03:41:45.468Z,45.95
2023-05-20T03:42:45.456Z,49.22
2023-05-20T03:43:45.447Z,46.62
2023-05-20T03:44:45.423Z,42.48
2023-05-20T03:45:45.423Z,40.68
2023-05-20T03:46:45.433Z,49.43
2023-05-20T03:47:45.428Z,48.21
2023-05-20T03:48:45.397Z,48.83
2023-05-20T03:49:45.378Z,47.53
2023-05-20T03:50:45.373Z,45.55
2023-05-20T03:51:45.371Z,46.43
2023-05-20T03:52:45.407Z,46.71
2023-05-20T03:53:45.344Z,44.66
2023-05-20T03:54:45.330Z,47.07
2023-05-20T03:55:45.328Z,47.46
2023-05-20T03:56:45.323Z,47.42
2023-05-20T03:57:45.300Z,47.23
2023-05-20T03:58:45.296Z,46.54
2023-05-20T03:59:45.277Z,46.51
2023-05-20T04:00:45.286Z,46.40
2023-05-20T04:01:45.289Z,47.52
2023-05-20T04:02:45.284Z,46.06
2023-05-20T04:03:45.416Z,51.35
2023-05-20T04:04:45.230Z,49.24
2023-05-20T04:05:45.225Z,48.56
2023-05-20T04:06:45.213Z,50.17
2023-05-20T04:07:45.198Z,48.83
2023-05-20T04:08:45.190Z,49.87
2023-05-20T04:09:45.201Z,48.00
2023-05-20T04:10:45.193Z,46.81
2023-05-20T04:11:45.166Z,45.66
2023-05-20T04:12:45.160Z,46.77
2023-05-20T04:13:45.148Z,44.46
2023-05-20T04:14:45.152Z,42.97
2023-05-20T04:15:45.127Z,46.74
2023-05-20T04:16:45.139Z,50.97
2023-05-20T04:17:45.119Z,46.19
2023-05-20T04:18:45.124Z,46.93
2023-05-20T04:19:45.122Z,51.52
2023-05-20T04:20:45.072Z,45.94
2023-05-20T04:21:45.064Z,45.01
2023-05-20T04:22:45.049Z,42.17
2023-05-20T04:23:45.058Z,42.72
2023-05-20T04:24:45.046Z,43.80
2023-05-20T04:25:45.022Z,48.91
2023-05-20T04:26:45.011Z,42.05
2023-05-20T04:27:45.003Z,43.28
2023-05-20T04:28:45.013Z,43.77
2023-05-20T04:29:44.991Z,43.77
2023-05-20T04:30:44.970Z,47.12
2023-05-20T04:31:45.012Z,42.94
2023-05-20T04:32:45.014Z,48.26
2023-05-20T04:33:44.958Z,45.22
2023-05-20T04:34:44.934Z,46.87
2023-05-20T04:35:44.923Z,46.94
2023-05-20T04:36:44.915Z,47.94
2023-05-20T04:37:44.908Z,44.86
2023-05-20T04:38:44.918Z,48.92
2023-05-20T04:39:44.887Z,48.01
2023-05-20T04:40:44.880Z,47.79
2023-05-20T04:41:44.864Z,49.12
2023-05-20T04:42:44.966Z,45.12
2023-05-20T04:43:44.857Z,46.84
2023-05-20T04:44:44.840Z,48.97
2023-05-20T04:45:44.831Z,46.23
2023-05-20T04:46:44.830Z,48.98
2023-05-20T04:47:44.839Z,50.24
2023-05-20T04:48:44.794Z,50.19
2023-05-20T04:49:44.776Z,51.14
2023-05-20T04:50:44.773Z,46.13
2023-05-20T04:51:44.757Z,48.21
2023-05-20T04:52:44.766Z,46.43
2023-05-20T04:53:46.165Z,48.14
2023-05-20T04:54:45.733Z,43.13
2023-05-20T04:55:44.721Z,44.51
2023-05-20T04:56:44.707Z,47.45
2023-05-20T04:57:44.734Z,46.93
2023-05-20T04:58:44.689Z,44.21
2023-05-20T04:59:44.681Z,46.39
2023-05-20T05:00:44.684Z,49.71
2023-05-20T05:01:44.715Z,47.04
2023-05-20T05:02:44.692Z,48.85
2023-05-20T05:03:44.650Z,49.67
2023-05-20T05:04:44.645Z,48.66
2023-05-20T05:05:44.622Z,46.26
2023-05-20T05:06:44.625Z,47.11
2023-05-20T05:07:44.603Z,49.79
2023-05-20T05:08:44.589Z,46.68
2023-05-20T05:09:44.599Z,49.25
2023-05-20T05:10:44.583Z,45.77
2023-05-20T05:11:44.571Z,43.80
2023-05-20T05:12:44.552Z,44.33
2023-05-20T05:13:45.542Z,42.32
2023-05-20T05:14:44.530Z,44.58
2023-05-20T05:15:44.570Z,48.09
2023-05-20T05:16:44.531Z,46.45
2023-05-20T05:17:44.549Z,42.86
2023-05-20T05:18:44.519Z,46.36
2023-05-20T05:19:44.489Z,41.81
2023-05-20T05:20:44.482Z,42.43
2023-05-20T05:21:44.464Z,41.79
2023-05-20T05:22:44.459Z,46.19
2023-05-20T05:23:44.452Z,43.52
2023-05-20T05:24:44.448Z,49.42
2023-05-20T05:25:44.437Z,48.76
2023-05-20T05:26:44.417Z,45.99
2023-05-20T05:27:44.410Z,46.79
2023-05-20T05:28:44.398Z,45.61
2023-05-20T05:29:44.415Z,45.80
2023-05-20T05:30:44.390Z,48.68
2023-05-20T05:31:44.369Z,50.15
2023-05-20T05:32:44.448Z,45.03
2023-05-20T05:33:44.350Z,47.24
2023-05-20T05:34:44.350Z,47.49
2023-05-20T05:35:44.326Z,49.01
2023-05-20T05:36:44.320Z,48.65
2023-05-20T05:37:44.324Z,47.51
2023-05-20T05:38:44.304Z,46.34
2023-05-20T05:39:44.301Z,48.78
2023-05-20T05:40:44.271Z,45.26
2023-05-20T05:41:44.272Z,48.68
2023-05-20T05:42:44.263Z,48.46
2023-05-20T05:43:44.250Z,51.50
2023-05-20T05:44:44.254Z,50.25
2023-05-20T05:45:44.226Z,52.84
2023-05-20T05:46:44.324Z,51.14
2023-05-20T05:47:44.267Z,50.47
2023-05-20T05:48:44.207Z,50.91
2023-05-20T05:49:44.219Z,48.48
2023-05-20T05:50:44.197Z,50.61
2023-05-20T05:51:44.180Z,48.78
2023-05-20T05:52:44.194Z,47.88
2023-05-20T05:53:44.160Z,54.11
2023-05-20T05:54:44.143Z,50.52
2023-05-20T05:55:44.128Z,48.43
2023-05-20T05:56:44.755Z,46.15
2023-05-20T05:57:44.114Z,48.21
2023-05-20T05:58:44.115Z,51.88
2023-05-20T05:59:44.099Z,49.86
2023-05-20T06:00:44.113Z,54.10
2023-05-20T06:01:44.118Z,50.34
2023-05-20T06:02:44.144Z,49.28
2023-05-20T06:03:44.177Z,47.08
2023-05-20T06:04:45.052Z,48.95
2023-05-20T06:05:44.030Z,47.70
2023-05-20T06:06:44.023Z,45.95
2023-05-20T06:07:44.025Z,47.02
2023-05-20T06:08:44.005Z,47.30
2023-05-20T06:09:43.997Z,53.98
2023-05-20T06:10:43.989Z,62.65
2023-05-20T06:11:43.986Z,49.04
2023-05-20T06:12:43.975Z,49.35
2023-05-20T06:13:43.956Z,44.46
2023-05-20T06:14:43.945Z,52.49
2023-05-20T06:15:43.933Z,51.12
2023-05-20T06:16:44.003Z,50.81
2023-05-20T06:17:43.932Z,50.05
2023-05-20T06:18:43.971Z,51.36
2023-05-20T06:19:43.892Z,55.60
2023-05-20T06:20:43.899Z,50.23
2023-05-20T06:21:43.909Z,53.70
2023-05-20T06:22:43.861Z,50.26
2023-05-20T06:23:43.854Z,52.03
2023-05-20T06:24:43.857Z,46.12
2023-05-20T06:25:43.851Z,46.23
2023-05-20T06:26:43.841Z,47.84
2023-05-20T06:27:43.822Z,50.03
2023-05-20T06:28:43.829Z,50.36
2023-05-20T06:29:44.041Z,52.06
2023-05-20T06:30:44.850Z,56.68
2023-05-20T06:31:43.807Z,52.33
2023-05-20T06:32:43.819Z,54.78
2023-05-20T06:33:43.758Z,49.99
2023-05-20T06:34:43.752Z,48.63
2023-05-20T06:35:51.593Z,48.77
2023-05-20T06:36:44.757Z,55.72
2023-05-20T06:37:43.771Z,52.82
2023-05-20T06:38:43.751Z,52.64
2023-05-20T06:39:43.722Z,50.56
2023-05-20T06:40:43.709Z,51.02
2023-05-20T06:41:43.695Z,44.94
2023-05-20T06:42:43.674Z,47.92
2023-05-20T06:43:43.670Z,49.90
2023-05-20T06:44:43.681Z,54.62
2023-05-20T06:45:43.651Z,50.25
2023-05-20T06:46:43.741Z,51.43
2023-05-20T06:47:43.657Z,47.16
2023-05-20T06:48:43.624Z,50.47
2023-05-20T06:49:46.500Z,48.57
2023-05-20T06:50:43.600Z,48.36
2023-05-20T06:51:43.586Z,45.31
2023-05-20T06:52:43.591Z,49.37
2023-05-20T06:53:43.560Z,47.12
2023-05-20T06:54:43.577Z,47.53
2023-05-20T06:55:43.548Z,52.01
2023-05-20T06:56:43.550Z,53.23
2023-05-20T06:57:43.538Z,52.36
2023-05-20T06:58:43.522Z,49.57
2023-05-20T06:59:43.537Z,51.51
2023-05-20T07:00:43.493Z,51.44
2023-05-20T07:01:43.530Z,55.38
2023-05-20T07:02:43.523Z,49.69
2023-05-20T07:03:43.524Z,47.09
2023-05-20T07:04:43.472Z,50.48
2023-05-20T07:05:43.447Z,46.05
2023-05-20T07:06:43.436Z,47.65
2023-05-20T07:07:43.719Z,51.17
2023-05-20T07:08:43.456Z,48.49
2023-05-20T07:09:43.434Z,49.99
2023-05-20T07:10:43.412Z,48.55
2023-05-20T07:11:43.386Z,45.25
2023-05-20T07:12:43.396Z,46.46
2023-05-20T07:13:45.263Z,46.78
2023-05-20T07:14:44.376Z,47.42
2023-05-20T07:15:43.418Z,49.77
2023-05-20T07:16:43.346Z,48.67
2023-05-20T07:17:43.374Z,49.20
2023-05-20T07:18:43.356Z,46.82
2023-05-20T07:19:43.334Z,47.00
2023-05-20T07:20:43.307Z,53.42
2023-05-20T07:21:43.297Z,52.46
2023-05-20T07:22:43.291Z,50.17
2023-05-20T07:23:43.269Z,51.54
2023-05-20T07:24:43.264Z,42.56
2023-05-20T07:25:43.259Z,51.53
2023-05-20T07:26:43.254Z,50.55
2023-05-20T07:27:43.240Z,47.37
2023-05-20T07:28:43.223Z,53.46
2023-05-20T07:29:43.211Z,54.02
2023-05-20T07:30:43.191Z,47.97
2023-05-20T07:31:44.212Z,49.75
2023-05-20T07:32:43.230Z,50.74
2023-05-20T07:33:43.170Z,44.73
2023-05-20T07:34:43.172Z,51.03
2023-05-20T07:35:43.175Z,54.39
2023-05-20T07:36:43.161Z,47.21
2023-05-20T07:37:43.135Z,51.17
2023-05-20T07:38:52.722Z,49.65
2023-05-20T07:39:45.121Z,50.77
2023-05-20T07:40:43.142Z,52.17
2023-05-20T07:41:43.093Z,48.78
2023-05-20T07:42:43.080Z,52.36
2023-05-20T07:43:43.094Z,52.46
2023-05-20T07:44:43.070Z,48.30
2023-05-20T07:45:43.084Z,45.14
2023-05-20T07:46:43.080Z,48.77
2023-05-20T07:47:43.066Z,48.17
2023-05-20T07:48:43.059Z,49.94
2023-05-20T07:49:43.006Z,47.62
2023-05-20T07:50:44.031Z,45.35
2023-05-20T07:51:43.037Z,49.10
2023-05-20T07:52:55.213Z,49.36
2023-05-20T07:53:44.978Z,46.33
2023-05-20T07:54:43.004Z,45.50
2023-05-20T07:55:42.967Z,42.74
2023-05-20T07:56:42.952Z,42.70
2023-05-20T07:57:44.719Z,49.66
2023-05-20T07:58:43.931Z,51.41
2023-05-20T07:59:42.944Z,50.04
2023-05-20T08:00:42.927Z,47.83
2023-05-20T08:01:42.908Z,47.62
2023-05-20T08:02:43.053Z,50.90
2023-05-20T08:03:43.018Z,49.78
2023-05-20T08:04:42.951Z,47.80
2023-05-20T08:05:42.856Z,46.69
2023-05-20T08:06:42.864Z,48.24
2023-05-20T08:07:42.867Z,46.85
2023-05-20T08:08:42.835Z,52.78
2023-05-20T08:09:42.825Z,45.83
2023-05-20T08:10:42.815Z,51.65
2023-05-20T08:11:42.878Z,52.75
2023-05-20T08:12:42.789Z,50.56
2023-05-20T08:13:42.802Z,53.47
2023-05-20T08:14:42.765Z,52.31
2023-05-20T08:15:42.769Z,52.06
2023-05-20T08:16:42.808Z,50.06
2023-05-20T08:17:42.780Z,51.32
2023-05-20T08:18:42.757Z,52.40
2023-05-20T08:19:42.720Z,48.89
2023-05-20T08:20:42.697Z,52.56
2023-05-20T08:21:43.694Z,53.80
2023-05-20T08:22:42.688Z,57.60
2023-05-20T08:23:42.685Z,51.08
2023-05-20T08:24:42.669Z,50.52
2023-05-20T08:25:42.666Z,47.93
2023-05-20T08:26:42.647Z,48.31
2023-05-20T08:27:42.651Z,54.46
2023-05-20T08:28:42.643Z,52.27
2023-05-20T08:29:42.614Z,57.62
2023-05-20T08:30:42.636Z,56.52
2023-05-20T08:31:42.627Z,53.09
2023-05-20T08:32:42.604Z,51.80
2023-05-20T08:33:42.579Z,54.71
2023-05-20T08:34:42.566Z,51.45
2023-05-20T08:35:42.564Z,55.90
2023-05-20T08:36:42.557Z,56.27
2023-05-20T08:37:42.551Z,51.67
2023-05-20T08:38:42.527Z,49.52
2023-05-20T08:39:42.518Z,50.25
2023-05-20T08:40:42.516Z,48.02
2023-05-20T08:41:42.515Z,50.98
2023-05-20T08:42:42.504Z,53.14
2023-05-20T08:43:42.486Z,55.44
2023-05-20T08:44:42.467Z,53.26
2023-05-20T08:45:42.463Z,51.86
2023-05-20T08:46:42.470Z,48.40
2023-05-20T08:47:42.463Z,53.19
2023-05-20T08:48:42.442Z,54.11
2023-05-20T08:49:42.429Z,55.29
2023-05-20T08:50:42.430Z,49.12
2023-05-20T08:51:42.408Z,50.45
2023-05-20T08:52:42.386Z,51.69
2023-05-20T08:53:42.385Z,51.64
2023-05-20T08:54:42.370Z,49.78
2023-05-20T08:55:42.384Z,47.97
2023-05-20T08:56:42.359Z,51.99
2023-05-20T08:57:42.376Z,49.18
2023-05-20T08:58:42.333Z,53.96
2023-05-20T08:59:42.324Z,50.95
2023-05-20T09:00:42.320Z,50.59
2023-05-20T09:01:42.310Z,59.38
2023-05-20T09:02:42.323Z,51.89
2023-05-20T09:03:42.308Z,50.40
2023-05-20T09:04:42.327Z,46.42
2023-05-20T09:05:42.276Z,52.47
2023-05-20T09:06:42.256Z,47.09
2023-05-20T09:07:42.241Z,48.18
2023-05-20T09:08:42.236Z,49.96
2023-05-20T09:09:42.224Z,47.69
2023-05-20T09:10:42.233Z,47.81
2023-05-20T09:11:42.202Z,54.11
2023-05-20T09:12:42.197Z,53.17
2023-05-20T09:13:42.801Z,51.91
2023-05-20T09:14:42.225Z,48.64
2023-05-20T09:15:42.175Z,51.49
2023-05-20T09:16:42.248Z,52.94
2023-05-20T09:17:42.166Z,50.72
2023-05-20T09:18:42.860Z,51.09
2023-05-20T09:19:42.137Z,46.08
2023-05-20T09:20:42.133Z,48.12
2023-05-20T09:21:42.098Z,44.48
2023-05-20T09:22:42.086Z,49.30
2023-05-20T09:23:42.088Z,50.11
2023-05-20T09:24:42.085Z,49.70
2023-05-20T09:25:42.524Z,51.03
2023-05-20T09:26:43.187Z,49.34
2023-05-20T09:27:42.098Z,49.23
2023-05-20T09:28:42.079Z,51.22
2023-05-20T09:29:42.225Z,49.60
2023-05-20T09:30:43.359Z,54.58
2023-05-20T09:31:42.070Z,51.28
2023-05-20T09:32:42.052Z,49.82
2023-05-20T09:33:42.040Z,49.18
2023-05-20T09:34:41.976Z,50.89
2023-05-20T09:35:41.985Z,51.83
2023-05-20T09:36:41.978Z,48.46
2023-05-20T09:37:41.998Z,52.31
2023-05-20T09:38:41.964Z,49.75
2023-05-20T09:39:41.924Z,50.42
2023-05-20T09:40:41.907Z,45.78
2023-05-20T09:41:41.905Z,49.73
2023-05-20T09:42:41.895Z,52.38
2023-05-20T09:43:41.891Z,50.70
2023-05-20T09:44:41.884Z,53.60
2023-05-20T09:45:41.901Z,49.69
2023-05-20T09:46:41.885Z,52.17
2023-05-20T09:47:41.879Z,53.43
2023-05-20T09:48:42.841Z,54.19
2023-05-20T09:49:41.862Z,54.45
2023-05-20T09:50:41.895Z,51.80
2023-05-20T09:52:04.246Z,50.93
2023-05-20T09:52:43.037Z,52.45
2023-05-20T09:53:42.886Z,49.69
2023-05-20T09:55:14.976Z,47.55
2023-05-20T09:56:15.798Z,50.61
2023-05-20T09:56:41.761Z,53.62
2023-05-20T09:57:41.835Z,53.37
2023-05-20T09:58:41.748Z,53.22
2023-05-20T09:59:41.717Z,48.04
2023-05-20T10:00:41.715Z,51.63
2023-05-20T10:01:42.821Z,49.88
2023-05-20T10:02:41.773Z,55.68
2023-05-20T10:03:44.172Z,51.86
2023-05-20T10:04:42.691Z,47.70
2023-05-20T10:05:42.065Z,48.90
2023-05-20T10:06:42.699Z,51.44
2023-05-20T10:07:42.546Z,55.92
2023-05-20T10:08:42.636Z,50.78
2023-05-20T10:09:41.625Z,50.15
2023-05-20T10:10:41.613Z,43.68
2023-05-20T10:11:41.607Z,54.31
2023-05-20T10:12:41.586Z,50.54
2023-05-20T10:13:41.608Z,48.90
2023-05-20T10:14:42.268Z,56.56
2023-05-20T10:15:42.619Z,48.64
2023-05-20T10:16:41.568Z,47.09
2023-05-20T10:17:41.611Z,48.82
2023-05-20T10:18:41.565Z,53.62
2023-05-20T10:19:41.525Z,51.68
2023-05-20T10:20:41.528Z,53.30
2023-05-20T10:21:41.507Z,50.39
2023-05-20T10:22:41.506Z,46.32
2023-05-20T10:23:41.484Z,48.80
2023-05-20T10:24:41.630Z,50.02
2023-05-20T10:25:41.479Z,52.76
2023-05-20T10:26:41.461Z,53.68
2023-05-20T10:27:41.437Z,51.43
2023-05-20T10:28:41.439Z,53.03
2023-05-20T10:29:41.416Z,50.43
2023-05-20T10:30:43.639Z,57.49
2023-05-20T10:31:42.398Z,51.84
2023-05-20T10:32:41.466Z,50.78
2023-05-20T10:33:41.492Z,50.14
2023-05-20T10:34:41.368Z,50.57
2023-05-20T10:35:41.373Z,50.30
2023-05-20T10:36:42.737Z,47.38
2023-05-20T10:37:41.332Z,42.82
2023-05-20T10:38:41.325Z,43.73
2023-05-20T10:39:41.325Z,48.91
2023-05-20T10:40:41.358Z,52.07
2023-05-20T10:41:41.301Z,51.64
2023-05-20T10:42:41.287Z,41.77
2023-05-20T10:43:41.276Z,48.17
2023-05-20T10:44:41.273Z,41.75
2023-05-20T10:45:41.260Z,50.39
2023-05-20T10:47:42.430Z,45.69
2023-05-20T10:48:41.389Z,49.01
2023-05-20T10:49:41.236Z,45.46
2023-05-20T10:50:41.210Z,58.48
2023-05-20T10:51:41.194Z,47.08
2023-05-20T10:52:41.189Z,51.99
2023-05-20T10:53:41.194Z,48.64
2023-05-20T10:54:41.178Z,53.57
2023-05-20T10:55:41.170Z,50.89
2023-05-20T10:56:41.150Z,50.07
2023-05-20T10:57:41.134Z,48.88
2023-05-20T10:58:41.181Z,65.75
2023-05-20T10:59:41.304Z,67.86
2023-05-20T11:00:42.404Z,65.67
2023-05-20T11:01:41.998Z,61.83
2023-05-20T11:02:42.227Z,57.41
2023-05-20T11:04:00.098Z,59.34
2023-05-20T11:04:42.180Z,51.95
2023-05-20T11:05:41.152Z,53.46
2023-05-20T11:06:41.179Z,48.12
2023-05-20T11:07:41.132Z,55.87
2023-05-20T11:08:41.225Z,58.51
2023-05-20T11:09:41.181Z,56.79
2023-05-20T11:10:41.422Z,58.45
2023-05-20T11:11:41.073Z,51.22
2023-05-20T11:12:41.357Z,46.76
2023-05-20T11:13:41.314Z,49.25
2023-05-20T11:14:41.082Z,52.18
2023-05-20T11:15:41.026Z,60.24
2023-05-20T11:16:41.083Z,52.94
2023-05-20T11:17:41.048Z,56.71
2023-05-20T11:18:41.175Z,61.49
2023-05-20T11:19:41.111Z,59.10
2023-05-20T11:20:41.013Z,60.93
2023-05-20T11:21:41.027Z,59.59
2023-05-20T11:22:41.009Z,51.83
2023-05-20T11:23:40.977Z,50.94
2023-05-20T11:24:40.980Z,46.98
2023-05-20T11:25:41.053Z,50.53
2023-05-20T11:26:41.008Z,50.46
2023-05-20T11:27:41.017Z,48.49
2023-05-20T11:28:40.963Z,56.89
2023-05-20T11:29:40.896Z,58.25
2023-05-20T11:30:40.920Z,57.55
2023-05-20T11:31:40.905Z,56.01
2023-05-20T11:32:40.963Z,50.94
2023-05-20T11:33:40.896Z,51.88
2023-05-20T11:34:40.914Z,54.02
2023-05-20T11:35:40.856Z,53.65
2023-05-20T11:36:40.858Z,53.67
2023-05-20T11:37:40.789Z,57.62
2023-05-20T11:38:40.834Z,63.01
2023-05-20T11:39:40.858Z,64.29
2023-05-20T11:40:49.819Z,63.01
2023-05-20T11:41:42.836Z,59.16
2023-05-20T11:42:40.810Z,62.49
2023-05-20T11:43:40.773Z,60.15
2023-05-20T11:44:40.781Z,55.45
2023-05-20T11:45:41.794Z,55.18
2023-05-20T11:46:40.858Z,58.15
2023-05-20T11:47:40.721Z,54.54
2023-05-20T11:48:40.742Z,56.18
2023-05-20T11:49:40.745Z,51.13
2023-05-20T11:50:40.754Z,51.18
2023-05-20T11:51:41.704Z,54.21
2023-05-20T11:52:40.706Z,56.53
2023-05-20T11:53:40.688Z,57.67
2023-05-20T11:54:40.703Z,56.94
2023-05-20T11:55:40.660Z,47.63
2023-05-20T11:56:40.805Z,50.57
2023-05-20T11:57:40.625Z,46.99
2023-05-20T11:58:40.604Z,48.41
2023-05-20T11:59:40.647Z,48.48
2023-05-20T12:00:50.621Z,48.52
2023-05-20T12:01:42.672Z,46.48
2023-05-20T12:02:40.644Z,47.60
2023-05-20T12:03:40.790Z,48.35
2023-05-20T12:04:40.672Z,57.78
2023-05-20T12:05:40.550Z,44.87
2023-05-20T12:06:40.624Z,48.27
2023-05-20T12:07:40.600Z,47.66
2023-05-20T12:08:40.546Z,49.31
2023-05-20T12:09:40.603Z,46.71
2023-05-20T12:10:40.497Z,46.13
2023-05-20T12:11:40.505Z,49.59
2023-05-20T12:12:40.510Z,44.07
2023-05-20T12:13:40.428Z,45.58
2023-05-20T12:14:40.441Z,52.16
2023-05-20T12:15:40.441Z,49.35
2023-05-20T12:16:40.426Z,49.80
2023-05-20T12:17:40.461Z,51.24
2023-05-20T12:18:40.458Z,47.36
2023-05-20T12:19:41.903Z,52.84
2023-05-20T12:20:40.372Z,50.16
2023-05-20T12:21:40.374Z,46.33
2023-05-20T12:22:40.386Z,49.95
2023-05-20T12:23:40.364Z,46.88
2023-05-20T12:24:40.341Z,45.03
2023-05-20T12:25:40.321Z,50.60
2023-05-20T12:26:40.319Z,48.54
2023-05-20T12:27:40.291Z,47.86
2023-05-20T12:28:40.387Z,45.48
2023-05-20T12:29:40.300Z,50.94
2023-05-20T12:30:40.273Z,48.17
2023-05-20T12:31:40.260Z,50.42
2023-05-20T12:32:40.256Z,50.38
2023-05-20T12:33:40.259Z,43.40
2023-05-20T12:34:40.218Z,45.23
2023-05-20T12:35:40.213Z,50.50
2023-05-20T12:36:40.189Z,48.60
2023-05-20T12:37:40.242Z,52.83
2023-05-20T12:38:40.170Z,50.12
2023-05-20T12:39:40.196Z,45.76
2023-05-20T12:40:40.152Z,47.64
2023-05-20T12:41:40.193Z,48.69
2023-05-20T12:42:40.188Z,50.67
2023-05-20T12:43:40.148Z,46.60
2023-05-20T12:44:40.111Z,49.35
2023-05-20T12:45:40.161Z,47.21
2023-05-20T12:46:40.115Z,50.37
2023-05-20T12:47:40.169Z,49.72
2023-05-20T12:48:42.551Z,46.34
2023-05-20T12:49:41.076Z,46.90
2023-05-20T12:50:40.069Z,48.76
2023-05-20T12:51:40.116Z,46.23
2023-05-20T12:52:40.073Z,46.62
2023-05-20T12:53:40.025Z,41.93